Ent AFB, Colorado
Current Conditions -  °F | °C
As of 3:54 PM on Monday 22 Dec 2014 (Local Time) from KCOS Reporting Station
Broken Clouds Broken Clouds  
Wind Chill: 19°   Ceiling: 4300
Heat Index: 29°   Visibility: 10mi
Dew Point: 24°   Wind: 13mph
Humidity: 82%   Direction: 40°NE
Pressure: 29.7"   Gusts: NA
Location:  38.8334°N, 104.82°W
Report Text: KCOS 222254Z 04011KT 10SM FEW008 SCT024 BKN043 BKN200 M02/M04 A2970 RMK AO2 SNB04E34 SLP087 VCSH ALQDS P0000 T10171044
Loading
Personal Weather Stations






























Interactive Weather Map New forecast layout! Learn more

10-Day Weather Forecast

Advertisements
Track Severe Weather on mobile